Time;durP1;ratioP1;P1;durP2;ratioP2;P2;SDS_P1;SDS_P2;PMS_P1;PMS_P2;Temp;Humidity;BMP_temperature;BMP_pressure;BME280_temperature;BME280_humidity;BME280_pressure;Samples;Min_cycle;Max_cycle;Signal;HPM_P1;HPM_P2
2022/09/05 00:00:08;;;;;;;5.40;3.40;;;18.50;99.90;;;;;;4971455;28;20228;-83
2022/09/05 00:02:59;;;;;;;4.05;3.35;;;18.50;99.90;;;;;;4994232;28;20425;-84
2022/09/05 00:05:30;;;;;;;3.88;3.53;;;18.50;99.90;;;;;;4982475;28;20981;-84
2022/09/05 00:08:11;;;;;;;4.03;3.58;;;18.50;99.90;;;;;;4967416;28;20061;-83
2022/09/05 00:11:09;;;;;;;3.90;3.47;;;18.50;99.90;;;;;;5008612;28;20412;-84
2022/09/05 00:13:38;;;;;;;5.07;3.55;;;18.50;99.90;;;;;;4981502;28;20044;-84
2022/09/05 00:16:45;;;;;;;4.47;3.60;;;18.40;99.90;;;;;;4982218;28;20026;-84
2022/09/05 00:19:31;;;;;;;5.43;3.47;;;18.40;99.90;;;;;;4976563;28;20062;-84
2022/09/05 00:22:06;;;;;;;7.10;3.35;;;18.40;99.90;;;;;;4989327;28;20241;-84
2022/09/05 00:24:57;;;;;;;5.03;3.58;;;18.40;99.90;;;;;;4970459;28;20047;-84
2022/09/05 00:27:38;;;;;;;5.63;3.60;;;18.30;99.90;;;;;;4991577;28;20053;-84
2022/09/05 00:30:16;;;;;;;4.55;4.00;;;18.30;99.90;;;;;;4993814;28;20113;-84
2022/09/05 00:33:00;;;;;;;4.95;3.80;;;18.30;99.90;;;;;;4960443;28;20093;-84
2022/09/05 00:35:54;;;;;;;4.22;3.65;;;18.30;99.90;;;;;;4970744;28;20046;-83
2022/09/05 00:38:25;;;;;;;6.65;3.97;;;18.20;99.90;;;;;;4957587;28;20061;-84
2022/09/05 00:40:55;;;;;;;6.15;4.00;;;18.20;99.90;;;;;;4990513;28;20556;-84
2022/09/05 00:43:39;;;;;;;4.90;4.40;;;18.20;1.00;;;;;;4969424;28;20037;-84
2022/09/05 00:46:12;;;;;;;4.80;4.30;;;18.10;1.00;;;;;;4970960;28;20065;-84
2022/09/05 00:49:00;;;;;;;4.45;4.05;;;18.10;99.90;;;;;;4975181;28;20053;-84
2022/09/05 00:51:36;;;;;;;7.00;4.32;;;18.10;1.00;;;;;;4987444;28;20038;-83
2022/09/05 00:54:16;;;;;;;5.35;3.97;;;18.00;1.00;;;;;;5000746;28;20049;-83
2022/09/05 00:57:07;;;;;;;7.68;4.55;;;18.00;1.00;;;;;;4967999;28;20034;-83
2022/09/05 01:00:06;;;;;;;6.72;4.50;;;17.90;69.40;;;;;;4960896;28;20066;-84
2022/09/05 01:02:44;;;;;;;6.97;4.72;;;17.90;31.00;;;;;;4981570;28;20138;-84
2022/09/05 01:05:39;;;;;;;6.22;4.70;;;17.90;1.00;;;;;;5009686;28;20034;-84
2022/09/05 01:08:43;;;;;;;5.97;4.68;;;17.90;64.10;;;;;;4981682;28;20373;-84
2022/09/05 01:11:36;;;;;;;6.07;4.40;;;17.90;21.30;;;;;;4997869;28;20143;-83
2022/09/05 01:14:43;;;;;;;6.18;4.78;;;17.90;13.90;;;;;;4997757;28;20038;-84
2022/09/05 01:17:27;;;;;;;7.55;4.72;;;17.90;1.00;;;;;;4976936;28;20042;-84
2022/09/05 01:20:26;;;;;;;5.97;5.18;;;17.80;20.20;;;;;;5011870;28;20038;-83
2022/09/05 01:23:14;;;;;;;5.75;4.80;;;17.70;7.70;;;;;;5006863;28;20034;-84
2022/09/05 01:25:49;;;;;;;6.28;4.55;;;17.70;43.30;;;;;;4961325;28;20070;-84
2022/09/05 01:28:33;;;;;;;6.00;4.53;;;17.70;41.50;;;;;;4985698;28;20100;-84
2022/09/05 01:31:23;;;;;;;7.40;4.82;;;17.70;61.80;;;;;;4984200;28;20096;-84
2022/09/05 01:34:14;;;;;;;7.40;4.65;;;17.60;99.90;;;;;;4965188;28;21058;-84
2022/09/05 01:37:06;;;;;;;6.57;4.95;;;17.60;99.90;;;;;;4995699;28;20061;-84
2022/09/05 01:39:57;;;;;;;6.05;4.80;;;17.60;99.90;;;;;;4988360;28;20518;-84
2022/09/05 01:43:01;;;;;;;4.97;4.40;;;17.60;99.90;;;;;;4967061;28;20347;-84
2022/09/05 01:45:45;;;;;;;6.95;4.60;;;17.50;99.90;;;;;;4972532;28;20050;-83
2022/09/05 01:48:29;;;;;;;5.47;4.60;;;17.50;99.90;;;;;;4980559;28;20064;-84
2022/09/05 01:51:31;;;;;;;7.28;4.75;;;17.40;99.90;;;;;;5007335;28;20060;-84
2022/09/05 01:54:15;;;;;;;6.75;4.82;;;17.30;99.90;;;;;;4959468;28;20493;-84
2022/09/05 01:57:06;;;;;;;6.22;4.75;;;17.30;99.90;;;;;;4968992;28;20092;-83
2022/09/05 01:59:50;;;;;;;8.02;4.97;;;17.20;99.90;;;;;;4957053;28;20505;-83
2022/09/05 02:02:57;;;;;;;7.53;4.97;;;17.20;99.90;;;;;;4991340;28;20054;-84
2022/09/05 02:05:54;;;;;;;8.55;5.30;;;17.20;99.90;;;;;;4935665;28;21347;-83
2022/09/05 02:08:32;;;;;;;5.85;5.03;;;17.00;99.90;;;;;;4967887;28;20050;-84
2022/09/05 02:11:02;;;;;;;6.35;4.90;;;17.00;99.90;;;;;;4968167;28;20154;-83
2022/09/05 02:13:34;;;;;;;5.95;4.88;;;16.90;99.90;;;;;;4971757;28;20496;-84
2022/09/05 02:16:31;;;;;;;5.75;5.10;;;16.90;1.00;;;;;;5009371;28;20117;-84
2022/09/05 02:19:09;;;;;;;7.10;5.25;;;16.90;1.00;;;;;;4998071;28;20096;-83
2022/09/05 02:21:37;;;;;;;8.00;5.55;;;16.80;1.00;;;;;;4971227;28;20042;-84
2022/09/05 02:24:13;;;;;;;6.72;5.22;;;16.80;1.00;;;;;;5010492;28;20493;-84
2022/09/05 02:26:57;;;;;;;7.13;5.68;;;16.80;1.00;;;;;;4959833;28;20122;-84
2022/09/05 02:29:47;;;;;;;5.78;5.00;;;16.70;63.80;;;;;;4995361;28;20464;-83
2022/09/05 02:32:26;;;;;;;6.88;5.43;;;16.70;73.10;;;;;;4980432;28;20345;-83
2022/09/05 02:35:11;;;;;;;7.32;5.70;;;16.70;99.90;;;;;;4989454;28;20128;-83
2022/09/05 02:37:48;;;;;;;6.63;6.00;;;16.60;99.90;;;;;;4978045;28;20059;-84
2022/09/05 02:40:27;;;;;;;7.22;5.50;;;16.60;99.90;;;;;;4996035;28;20422;-83
2022/09/05 02:43:15;;;;;;;6.30;5.70;;;16.60;99.90;;;;;;4969682;28;20481;-83
2022/09/05 02:45:53;;;;;;;6.97;5.85;;;16.50;99.90;;;;;;4969536;28;20042;-84
2022/09/05 02:48:31;;;;;;;7.10;5.68;;;16.50;99.90;;;;;;4968477;28;20038;-84
2022/09/05 02:51:18;;;;;;;6.40;5.80;;;16.50;99.90;;;;;;4986066;28;20050;-84
2022/09/05 02:53:53;;;;;;;9.80;5.95;;;16.40;99.90;;;;;;4990878;28;20714;-84
2022/09/05 02:56:50;;;;;;;6.80;6.05;;;16.30;99.90;;;;;;4984216;28;20030;-84
2022/09/05 02:59:36;;;;;;;8.93;6.20;;;16.20;99.90;;;;;;4989291;28;20797;-84
2022/09/05 03:02:29;;;;;;;8.65;5.80;;;16.20;99.90;;;;;;4980661;28;20047;-83
2022/09/05 03:05:19;;;;;;;6.72;6.10;;;16.10;1.00;;;;;;5004725;28;20072;-84
2022/09/05 03:08:00;;;;;;;7.25;6.43;;;16.10;1.00;;;;;;4972345;28;20054;-84
2022/09/05 03:10:40;;;;;;;7.93;5.93;;;16.10;25.00;;;;;;4962569;28;20100;-84
2022/09/05 03:13:18;;;;;;;7.65;6.35;;;16.00;99.90;;;;;;4991768;28;20037;-84
2022/09/05 03:16:20;;;;;;;9.30;6.45;;;16.10;99.90;;;;;;5006250;28;20113;-84
2022/09/05 03:19:11;;;;;;;7.00;6.28;;;16.00;99.90;;;;;;4969934;28;20513;-84
2022/09/05 03:22:09;;;;;;;7.35;6.45;;;16.00;99.90;;;;;;4987840;28;20526;-84
2022/09/05 03:25:26;;;;;;;10.02;6.30;;;15.90;99.90;;;;;;4964154;28;20798;-84
2022/09/05 03:28:26;;;;;;;7.72;6.57;;;15.90;99.90;;;;;;4943045;28;20050;-84
2022/09/05 03:31:30;;;;;;;7.55;6.70;;;15.90;99.90;;;;;;4968547;28;20046;-84
2022/09/05 03:34:08;;;;;;;9.10;6.60;;;15.80;99.90;;;;;;4977689;28;20064;-83
2022/09/05 03:36:55;;;;;;;12.23;6.97;;;15.80;99.90;;;;;;4983389;28;20038;-84
2022/09/05 03:39:52;;;;;;;7.95;7.20;;;15.80;99.90;;;;;;4984565;28;20034;-83
2022/09/05 03:42:49;;;;;;;9.30;7.15;;;15.70;99.90;;;;;;4980350;28;20034;-84
2022/09/05 03:45:39;;;;;;;7.55;6.85;;;15.70;1.00;;;;;;4972683;28;20125;-84
2022/09/05 03:48:11;;;;;;;7.55;6.70;;;15.70;99.90;;;;;;4984583;28;20485;-84
2022/09/05 03:50:43;;;;;;;10.75;7.15;;;15.60;1.00;;;;;;4981543;28;20046;-84
2022/09/05 03:53:41;;;;;;;7.35;6.65;;;15.60;99.90;;;;;;5001592;28;20529;-83
2022/09/05 03:56:32;;;;;;;9.60;7.35;;;15.60;1.00;;;;;;4972873;28;20076;-84
2022/09/05 03:59:21;;;;;;;7.90;7.10;;;15.50;1.00;;;;;;4978473;28;20498;-83
2022/09/05 04:01:51;;;;;;;8.13;7.43;;;15.50;2.50;;;;;;4991360;28;20130;-84
2022/09/05 04:04:32;;;;;;;8.48;6.97;;;15.50;99.90;;;;;;4996356;28;20589;-84
2022/09/05 04:07:10;;;;;;;8.18;7.32;;;15.40;59.70;;;;;;4962450;28;20058;-84
2022/09/05 04:09:48;;;;;;;7.28;6.47;;;15.30;99.90;;;;;;4962162;28;20186;-84
2022/09/05 04:12:37;;;;;;;7.68;6.95;;;15.30;99.90;;;;;;4962579;28;20538;-84
2022/09/05 04:15:21;;;;;;;9.93;7.63;;;15.30;99.90;;;;;;4991209;28;20026;-84
2022/09/05 04:17:56;;;;;;;8.95;7.32;;;15.30;99.90;;;;;;4979466;28;20105;-83
2022/09/05 04:20:57;;;;;;;8.80;7.38;;;15.30;99.90;;;;;;4960518;28;20050;-84
2022/09/05 04:23:42;;;;;;;8.63;7.65;;;15.30;99.90;;;;;;4981271;28;20084;-84
2022/09/05 04:26:26;;;;;;;8.52;7.63;;;15.30;99.90;;;;;;4966718;28;20080;-83
2022/09/05 04:28:58;;;;;;;8.65;7.78;;;15.20;99.90;;;;;;5004339;28;20385;-84
2022/09/05 04:31:46;;;;;;;8.35;7.55;;;15.30;1.00;;;;;;4987657;28;20169;-84
2022/09/05 04:34:20;;;;;;;8.25;7.45;;;15.20;1.00;;;;;;4961637;28;20074;-84
2022/09/05 04:37:05;;;;;;;8.77;7.88;;;15.20;1.00;;;;;;4970637;28;20072;-84
2022/09/05 04:39:32;;;;;;;8.40;7.55;;;15.20;1.00;;;;;;4959569;28;20035;-84
2022/09/05 04:42:03;;;;;;;11.02;7.88;;;15.20;99.90;;;;;;4989404;28;20064;-84
2022/09/05 04:44:39;;;;;;;10.20;7.88;;;15.10;1.00;;;;;;4980038;28;20039;-83
2022/09/05 04:47:24;;;;;;;8.88;7.90;;;15.10;1.00;;;;;;4964292;28;20352;-84
2022/09/05 04:50:12;;;;;;;9.35;8.45;;;15.10;1.00;;;;;;4954626;28;20538;-84
2022/09/05 04:53:07;;;;;;;9.32;8.23;;;15.10;74.70;;;;;;4966227;28;20427;-84
2022/09/05 04:55:54;;;;;;;9.60;8.40;;;15.00;99.90;;;;;;4962926;28;20042;-84
2022/09/05 04:58:36;;;;;;;9.07;8.20;;;15.00;99.90;;;;;;4990922;28;20576;-83
2022/09/05 05:01:11;;;;;;;10.82;8.82;;;15.00;75.10;;;;;;4994938;28;20046;-83
2022/09/05 05:03:37;;;;;;;9.45;8.00;;;15.00;99.90;;;;;;4991529;28;20121;-83
2022/09/05 05:06:28;;;;;;;9.10;8.30;;;15.00;99.90;;;;;;4966342;28;20035;-84
2022/09/05 05:09:00;;;;;;;9.13;8.18;;;15.00;99.90;;;;;;4990611;28;20073;-83
2022/09/05 05:12:03;;;;;;;9.48;8.57;;;15.00;99.90;;;;;;4981509;28;20084;-84
2022/09/05 05:14:45;;;;;;;9.43;8.48;;;15.00;99.90;;;;;;4979158;28;20048;-83
2022/09/05 05:17:32;;;;;;;10.93;8.70;;;15.00;99.90;;;;;;5003496;28;20035;-83
2022/09/05 05:20:09;;;;;;;9.75;8.85;;;15.10;99.90;;;;;;4975235;28;20038;-83
2022/09/05 05:22:45;;;;;;;10.02;9.02;;;15.10;99.90;;;;;;4979645;28;20096;-83
2022/09/05 05:25:12;;;;;;;9.13;8.32;;;15.10;99.90;;;;;;4978072;28;20606;-83
2022/09/05 05:27:51;;;;;;;9.82;8.82;;;15.10;99.90;;;;;;4964960;28;20516;-83
2022/09/05 05:30:31;;;;;;;9.95;9.00;;;15.20;99.90;;;;;;4969913;28;20042;-83
2022/09/05 05:32:59;;;;;;;9.65;8.73;;;15.20;99.90;;;;;;4981168;28;20045;-84
2022/09/05 05:35:29;;;;;;;13.02;9.20;;;15.30;99.90;;;;;;4985589;28;20124;-84
2022/09/05 05:38:27;;;;;;;10.40;8.25;;;15.40;99.90;;;;;;5008633;28;20085;-83
2022/09/05 05:41:05;;;;;;;11.02;9.77;;;15.50;99.90;;;;;;4965654;28;20064;-84
2022/09/05 05:43:38;;;;;;;11.50;8.98;;;15.50;99.90;;;;;;4971739;28;20230;-84
2022/09/05 05:46:04;;;;;;;10.02;9.00;;;15.60;99.90;;;;;;4971424;28;20133;-83
2022/09/05 05:48:38;;;;;;;9.80;8.77;;;15.70;1.00;;;;;;4963493;28;20041;-84
2022/09/05 05:51:30;;;;;;;9.63;8.73;;;15.70;1.00;;;;;;4978386;28;20042;-84
2022/09/05 05:54:04;;;;;;;10.02;9.02;;;15.80;1.00;;;;;;4981578;28;20739;-84
2022/09/05 05:56:47;;;;;;;12.25;9.38;;;15.90;99.90;;;;;;4965249;28;20100;-84
2022/09/05 05:59:34;;;;;;;9.77;8.73;;;16.00;99.90;;;;;;5009817;28;20076;-84
2022/09/05 06:02:24;;;;;;;11.50;9.75;;;16.10;99.90;;;;;;5005106;28;20426;-83
2022/09/05 06:05:08;;;;;;;10.07;8.73;;;16.20;99.90;;;;;;4991741;28;20046;-84
2022/09/05 06:08:09;;;;;;;9.60;8.57;;;16.40;61.40;;;;;;4993857;28;20054;-83
2022/09/05 06:11:22;;;;;;;10.80;8.57;;;16.50;1.00;;;;;;4994811;28;20038;-83
2022/09/05 06:14:09;;;;;;;10.02;9.07;;;16.60;1.00;;;;;;4971959;28;20045;-84
2022/09/05 06:16:55;;;;;;;12.65;8.77;;;16.70;1.00;;;;;;5001160;28;20038;-84
2022/09/05 06:19:30;;;;;;;9.38;8.40;;;16.70;99.90;;;;;;4967420;28;20045;-84
2022/09/05 06:22:13;;;;;;;9.45;8.45;;;16.80;99.90;;;;;;5008035;28;20053;-83
2022/09/05 06:25:01;;;;;;;11.40;8.50;;;16.90;99.90;;;;;;4980279;28;20057;-84
2022/09/05 06:27:53;;;;;;;11.13;8.85;;;17.00;99.90;;;;;;4993979;28;20088;-84
2022/09/05 06:30:21;;;;;;;10.13;9.13;;;17.20;99.90;;;;;;4988355;28;20042;-84
2022/09/05 06:33:15;;;;;;;9.70;8.20;;;17.20;1.00;;;;;;4967965;28;20627;-84
2022/09/05 06:36:05;;;;;;;9.00;8.07;;;17.20;1.70;;;;;;4993597;28;20054;-83
2022/09/05 06:39:16;;;;;;;9.60;8.70;;;17.30;1.00;;;;;;4963887;28;20070;-84
2022/09/05 06:42:03;;;;;;;8.95;8.13;;;17.50;99.90;;;;;;4966694;28;20569;-83
2022/09/05 06:44:55;;;;;;;9.68;8.68;;;17.60;99.90;;;;;;4972738;28;20475;-84
2022/09/05 06:47:21;;;;;;;10.10;9.20;;;17.80;99.90;;;;;;4983478;28;20043;-83
2022/09/05 06:50:01;;;;;;;10.20;8.88;;;17.90;99.90;;;;;;4981534;28;20422;-83
2022/09/05 06:52:58;;;;;;;9.95;8.95;;;18.00;99.20;;;;;;4965436;28;20058;-84
2022/09/05 06:55:29;;;;;;;9.00;8.10;;;18.10;1.00;;;;;;4993911;28;20495;-84
2022/09/05 06:58:23;;;;;;;9.32;8.43;;;18.20;1.00;;;;;;4990205;28;20230;-84
2022/09/05 07:00:57;;;;;;;10.00;8.60;;;18.30;1.00;;;;;;5012545;28;20085;-84
2022/09/05 07:03:33;;;;;;;15.95;8.50;;;18.40;1.00;;;;;;4953536;28;20050;-84
2022/09/05 07:06:14;;;;;;;9.52;8.23;;;18.40;1.00;;;;;;4992876;28;20134;-83
2022/09/05 07:08:52;;;;;;;9.15;8.18;;;18.50;1.00;;;;;;5004531;28;20054;-84
2022/09/05 07:11:36;;;;;;;10.75;8.25;;;18.60;99.90;;;;;;4977993;28;20100;-83
2022/09/05 07:14:12;;;;;;;8.60;7.80;;;18.50;99.90;;;;;;5005616;28;20667;-83
2022/09/05 07:16:46;;;;;;;10.30;8.15;;;18.60;99.90;;;;;;4990892;28;20050;-83
2022/09/05 07:19:36;;;;;;;12.55;8.77;;;18.70;99.90;;;;;;4963016;28;20167;-84
2022/09/05 07:22:19;;;;;;;8.93;8.02;;;18.90;99.90;;;;;;4994006;28;20039;-84
2022/09/05 07:24:48;;;;;;;10.88;8.18;;;18.90;99.90;;;;;;4998672;28;20061;-83
2022/09/05 07:27:38;;;;;;;10.13;8.02;;;18.90;99.90;;;;;;4993845;28;20138;-84
2022/09/05 07:30:05;;;;;;;10.65;8.07;;;19.20;99.90;;;;;;4963320;28;20038;-84
2022/09/05 07:32:41;;;;;;;9.10;8.00;;;19.20;99.90;;;;;;4964777;28;20046;-84
2022/09/05 07:35:16;;;;;;;8.95;8.02;;;19.30;99.90;;;;;;4992622;28;20510;-83
2022/09/05 07:37:44;;;;;;;10.27;8.25;;;19.50;99.90;;;;;;4968899;28;20042;-83
2022/09/05 07:40:15;;;;;;;10.82;8.55;;;19.70;99.90;;;;;;4962050;28;20062;-84
2022/09/05 07:42:57;;;;;;;12.02;8.45;;;19.80;90.50;;;;;;4953497;28;20050;-84
2022/09/05 07:45:28;;;;;;;10.90;8.30;;;19.90;67.30;;;;;;4987809;28;20658;-84
2022/09/05 07:48:02;;;;;;;9.45;8.32;;;20.00;80.90;;;;;;4962129;28;20110;-84
2022/09/05 07:50:30;;;;;;;10.05;8.18;;;20.20;1.00;;;;;;5010202;28;20100;-84
2022/09/05 07:52:58;;;;;;;12.70;7.68;;;20.40;1.00;;;;;;4951636;28;20062;-84
2022/09/05 07:55:29;;;;;;;10.02;7.90;;;20.50;1.00;;;;;;4966523;28;20112;-83
2022/09/05 07:57:59;;;;;;;8.95;7.80;;;20.40;1.00;;;;;;4990714;28;20038;-83
2022/09/05 08:00:27;;;;;;;8.50;7.75;;;20.50;1.00;;;;;;4989513;28;20053;-84
2022/09/05 08:02:53;;;;;;;11.95;7.38;;;20.70;1.00;;;;;;4969732;28;20098;-84
2022/09/05 08:05:21;;;;;;;8.73;6.95;;;20.90;1.00;;;;;;4985597;28;20046;-83
2022/09/05 08:07:55;;;;;;;9.02;7.32;;;21.00;1.00;;;;;;4984860;28;20066;-84
2022/09/05 08:10:29;;;;;;;8.27;7.47;;;21.20;99.90;;;;;;5007158;28;20653;-84
2022/09/05 08:13:03;;;;;;;8.82;7.38;;;21.30;99.90;;;;;;4964707;28;20435;-84
2022/09/05 08:15:29;;;;;;;7.95;6.75;;;21.60;1.00;;;;;;4956642;28;20034;-84
2022/09/05 08:18:10;;;;;;;9.45;6.78;;;21.90;99.90;;;;;;4971499;28;20041;-84
2022/09/05 08:20:47;;;;;;;8.45;6.88;;;22.00;99.90;;;;;;4990169;28;20046;-84
2022/09/05 08:23:49;;;;;;;8.10;6.35;;;22.10;99.90;;;;;;4980796;28;20037;-84
2022/09/05 08:26:24;;;;;;;8.00;6.25;;;22.20;99.90;;;;;;4970614;28;20529;-83
2022/09/05 08:28:56;;;;;;;8.98;6.57;;;22.30;99.90;;;;;;4992093;28;20069;-84
2022/09/05 08:31:44;;;;;;;9.50;6.78;;;22.50;99.90;;;;;;4957048;28;20045;-84
2022/09/05 08:34:20;;;;;;;11.85;6.72;;;22.50;99.90;;;;;;4971933;28;20045;-83
2022/09/05 08:36:47;;;;;;;7.80;5.78;;;22.60;99.90;;;;;;5004816;28;20027;-84
2022/09/05 08:39:19;;;;;;;8.50;5.70;;;22.70;99.90;;;;;;5006111;28;20043;-85
2022/09/05 08:42:07;;;;;;;7.32;6.00;;;22.90;99.90;;;;;;4957168;28;20034;-84
2022/09/05 08:44:59;;;;;;;7.65;5.95;;;23.00;99.90;;;;;;4957021;28;20367;-84
2022/09/05 08:47:54;;;;;;;6.40;5.18;;;23.20;99.90;;;;;;4972290;28;20159;-83
2022/09/05 08:50:31;;;;;;;6.77;5.83;;;23.40;99.90;;;;;;5006212;28;20451;-84
2022/09/05 08:53:25;;;;;;;8.20;5.97;;;23.40;99.90;;;;;;5004940;28;20035;-83
2022/09/05 08:56:02;;;;;;;9.68;5.72;;;23.40;99.90;;;;;;4945650;28;20186;-84
2022/09/05 08:59:02;;;;;;;6.45;5.00;;;23.60;99.90;;;;;;4971112;28;20109;-84
2022/09/05 09:01:37;;;;;;;7.35;5.20;;;23.70;99.90;;;;;;4989484;28;20042;-84
2022/09/05 09:04:36;;;;;;;9.48;5.30;;;23.90;99.90;;;;;;4985185;28;20049;-84
2022/09/05 09:07:26;;;;;;;7.88;5.57;;;24.10;99.90;;;;;;4983834;28;20058;-84
2022/09/05 09:10:13;;;;;;;7.88;5.25;;;24.10;99.90;;;;;;4988567;28;20097;-84
2022/09/05 09:13:17;;;;;;;12.85;5.65;;;24.30;99.90;;;;;;4986685;28;20151;-84
2022/09/05 09:16:24;;;;;;;8.35;5.03;;;24.60;99.90;;;;;;4968108;28;20393;-84
2022/09/05 09:18:53;;;;;;;9.85;5.70;;;24.80;99.90;;;;;;4951055;28;20050;-84
2022/09/05 09:21:34;;;;;;;6.68;5.28;;;24.90;99.90;;;;;;4993145;28;20038;-83
2022/09/05 09:24:06;;;;;;;6.88;4.95;;;25.10;99.90;;;;;;4989597;28;20045;-84
2022/09/05 09:26:41;;;;;;;9.60;5.50;;;25.10;99.90;;;;;;4973579;28;20046;-84
2022/09/05 09:29:11;;;;;;;9.40;5.35;;;25.30;99.90;;;;;;4977747;28;20418;-84
2022/09/05 09:31:45;;;;;;;6.03;5.22;;;25.40;99.90;;;;;;5000330;28;20034;-84
2022/09/05 09:34:24;;;;;;;6.60;5.90;;;25.70;99.90;;;;;;4990200;28;20074;-84
2022/09/05 09:37:18;;;;;;;6.30;5.70;;;25.80;99.90;;;;;;4996414;28;20048;-84
2022/09/05 09:40:16;;;;;;;10.43;5.97;;;25.80;99.90;;;;;;4986143;28;20540;-84
2022/09/05 09:42:49;;;;;;;10.63;5.35;;;25.80;99.90;;;;;;4963327;28;20069;-84
2022/09/05 09:45:40;;;;;;;7.68;5.00;;;26.10;99.90;;;;;;4988068;28;20100;-84
2022/09/05 09:48:19;;;;;;;8.52;4.80;;;26.20;99.90;;;;;;4958902;28;20046;-84
2022/09/05 09:51:18;;;;;;;7.63;4.28;;;26.10;99.90;;;;;;4968505;28;20076;-84
2022/09/05 09:54:15;;;;;;;5.88;4.60;;;26.60;99.90;;;;;;4973038;28;20093;-83
2022/09/05 09:57:17;;;;;;;5.25;3.72;;;26.70;99.90;;;;;;4985326;28;20693;-84
2022/09/05 10:00:01;;;;;;;4.63;3.78;;;26.80;99.90;;;;;;5004254;28;20086;-83
2022/09/05 10:03:16;;;;;;;6.32;3.90;;;27.00;99.90;;;;;;4988000;28;20057;-84
2022/09/05 10:06:00;;;;;;;4.57;3.53;;;26.90;99.90;;;;;;4966988;28;20537;-84
2022/09/05 10:08:56;;;;;;;4.38;3.30;;;27.00;99.90;;;;;;4976355;28;20494;-84
2022/09/05 10:11:58;;;;;;;4.53;3.22;;;27.10;99.90;;;;;;4964946;28;20494;-84
2022/09/05 10:15:08;;;;;;;6.57;3.30;;;27.40;99.90;;;;;;4966931;28;20042;-84
2022/09/05 10:17:36;;;;;;;3.97;3.10;;;27.30;99.90;;;;;;4988496;28;20070;-84
2022/09/05 10:20:21;;;;;;;3.95;3.17;;;27.30;99.90;;;;;;4977534;28;20497;-83
2022/09/05 10:22:55;;;;;;;4.18;2.90;;;27.50;99.90;;;;;;5008843;28;20543;-83
2022/09/05 10:25:55;;;;;;;3.00;2.70;;;27.50;99.90;;;;;;4998519;28;20042;-84
2022/09/05 10:28:26;;;;;;;5.20;2.70;;;27.60;99.90;;;;;;4980142;28;20049;-84
2022/09/05 10:31:18;;;;;;;7.45;3.08;;;27.60;99.90;;;;;;4975152;28;20049;-83
2022/09/05 10:34:01;;;;;;;5.07;2.92;;;27.60;99.90;;;;;;4977296;28;20077;-83
2022/09/05 10:36:31;;;;;;;7.25;3.17;;;27.90;99.90;;;;;;4986617;28;20489;-84
2022/09/05 10:39:18;;;;;;;5.60;3.13;;;27.60;99.90;;;;;;4963920;28;20039;-84
2022/09/05 10:41:56;;;;;;;3.95;3.00;;;28.20;99.90;;;;;;4966261;28;20433;-84
2022/09/05 10:44:39;;;;;;;6.93;2.95;;;28.40;99.90;;;;;;5005008;28;20031;-84
2022/09/05 10:47:31;;;;;;;6.25;3.10;;;28.40;99.90;;;;;;4979640;28;20316;-83
2022/09/05 10:50:26;;;;;;;3.13;2.63;;;28.60;99.90;;;;;;4984831;28;20514;-84
2022/09/05 10:53:18;;;;;;;6.57;3.00;;;28.80;99.90;;;;;;4980563;28;20525;-83
2022/09/05 10:55:50;;;;;;;7.20;2.90;;;28.90;99.90;;;;;;5002247;28;20133;-84
2022/09/05 10:58:26;;;;;;;3.63;2.42;;;28.90;99.90;;;;;;4985700;28;20168;-84
2022/09/05 11:01:16;;;;;;;6.72;2.50;;;28.90;99.90;;;;;;4955697;28;20046;-84
2022/09/05 11:04:14;;;;;;;5.80;2.42;;;29.10;99.90;;;;;;4960872;28;20039;-83
2022/09/05 11:06:40;;;;;;;5.78;2.75;;;29.30;99.90;;;;;;4994929;28;20533;-84
2022/09/05 11:09:21;;;;;;;5.20;2.75;;;29.50;99.90;;;;;;4979404;28;20046;-84
2022/09/05 11:12:12;;;;;;;3.00;2.30;;;29.20;99.90;;;;;;4978443;28;20039;-84
2022/09/05 11:14:52;;;;;;;4.90;2.72;;;29.60;99.90;;;;;;4984757;28;20051;-84
2022/09/05 11:17:29;;;;;;;6.47;2.53;;;29.70;99.90;;;;;;4978042;28;20030;-84
2022/09/05 11:20:34;;;;;;;2.70;2.28;;;29.70;99.90;;;;;;4981658;28;20124;-84
2022/09/05 11:23:14;;;;;;;5.35;2.55;;;29.90;99.90;;;;;;4979015;28;20152;-84
2022/09/05 11:25:40;;;;;;;5.68;2.90;;;30.40;99.90;;;;;;4983428;28;20042;-84
2022/09/05 11:28:17;;;;;;;6.28;2.58;;;29.90;99.90;;;;;;4983677;28;20343;-84
2022/09/05 11:30:52;;;;;;;4.72;2.78;;;30.10;99.90;;;;;;5009086;28;20096;-84
2022/09/05 11:33:48;;;;;;;3.90;2.60;;;30.10;99.90;;;;;;4977180;28;20042;-84
2022/09/05 11:36:35;;;;;;;5.55;2.72;;;30.20;99.90;;;;;;4970688;28;20349;-84
2022/09/05 11:39:19;;;;;;;5.15;2.55;;;30.60;99.90;;;;;;5007872;28;20146;-84
2022/09/05 11:42:20;;;;;;;3.28;2.80;;;30.80;99.30;;;;;;4975390;28;20039;-84
2022/09/05 11:44:48;;;;;;;2.72;2.40;;;30.00;89.70;;;;;;4959405;28;20042;-84
2022/09/05 11:47:49;;;;;;;3.88;2.50;;;30.50;90.30;;;;;;4979082;28;20497;-84
2022/09/05 11:50:51;;;;;;;6.35;2.60;;;31.10;93.40;;;;;;4980365;28;20109;-84
2022/09/05 11:53:38;;;;;;;5.85;2.92;;;31.10;90.70;;;;;;4988187;28;20037;-84
2022/09/05 11:56:21;;;;;;;4.38;3.10;;;31.30;85.90;;;;;;4984463;28;20035;-84
2022/09/05 11:59:12;;;;;;;11.40;3.55;;;30.70;63.30;;;;;;4988669;28;20068;-84
2022/09/05 12:02:20;;;;;;;3.80;2.80;;;31.00;76.00;;;;;;4991055;28;20058;-84
2022/09/05 12:04:57;;;;;;;5.60;3.05;;;30.80;60.90;;;;;;4974196;28;20043;-84
2022/09/05 12:07:40;;;;;;;4.53;2.80;;;31.20;65.40;;;;;;4984706;28;20314;-84
2022/09/05 12:10:21;;;;;;;5.68;3.03;;;31.70;73.00;;;;;;4957467;28;20050;-84
2022/09/05 12:13:07;;;;;;;3.28;2.72;;;32.00;69.40;;;;;;4988276;28;20096;-84
2022/09/05 12:15:33;;;;;;;4.20;2.63;;;31.90;58.40;;;;;;4972448;28;20146;-84
2022/09/05 12:18:18;;;;;;;3.65;2.17;;;31.40;46.80;;;;;;4985087;28;20129;-84
2022/09/05 12:20:51;;;;;;;;;;;32.00;61.80;;;;;;4971465;28;20307;-84
2022/09/05 12:23:50;;;;;;;3.40;2.58;;;32.10;44.70;;;;;;4980170;28;19929;-84
2022/09/05 12:26:46;;;;;;;4.25;2.60;;;31.70;21.80;;;;;;4965971;28;20542;-84
2022/09/05 12:29:21;;;;;;;7.10;2.90;;;31.30;14.30;;;;;;4983541;28;20069;-84
2022/09/05 12:31:53;;;;;;;3.78;2.83;;;30.70;1.00;;;;;;5003055;28;20121;-84
2022/09/05 12:34:57;;;;;;;2.85;2.47;;;30.40;1.00;;;;;;4966720;28;20042;-84
2022/09/05 12:37:53;;;;;;;4.35;2.50;;;31.10;6.10;;;;;;4986629;28;20029;-84
2022/09/05 12:40:33;;;;;;;5.53;2.72;;;30.70;2.10;;;;;;4994023;28;20035;-84
2022/09/05 12:43:10;;;;;;;4.60;2.47;;;30.50;1.00;;;;;;4977107;28;20072;-84
2022/09/05 12:45:49;;;;;;;4.50;2.65;;;30.30;1.00;;;;;;4979726;28;20246;-85
2022/09/05 12:48:21;;;;;;;5.70;2.70;;;29.80;1.00;;;;;;4984314;28;20046;-84
2022/09/05 12:51:18;;;;;;;3.22;2.20;;;30.00;1.00;;;;;;5013095;28;20249;-84
2022/09/05 12:53:57;;;;;;;6.20;2.80;;;31.40;5.50;;;;;;4990625;28;20042;-84
2022/09/05 12:56:28;;;;;;;2.88;2.22;;;32.10;10.60;;;;;;4974456;28;20120;-84
2022/09/05 12:58:55;;;;;;;4.18;2.42;;;32.10;2.80;;;;;;4963654;28;20053;-84
2022/09/05 13:01:33;;;;;;;3.28;2.50;;;31.90;1.00;;;;;;4994713;28;20101;-84
2022/09/05 13:04:20;;;;;;;5.90;2.97;;;32.30;1.00;;;;;;4971597;28;20074;-84
2022/09/05 13:07:10;;;;;;;4.55;2.40;;;32.80;1.00;;;;;;4993571;28;20625;-84
2022/09/05 13:09:55;;;;;;;4.43;2.58;;;33.10;1.00;;;;;;4989529;28;20081;-84
2022/09/05 13:12:26;;;;;;;6.43;2.40;;;33.40;1.00;;;;;;5013378;28;20479;-85
2022/09/05 13:15:11;;;;;;;3.78;2.40;;;32.70;1.00;;;;;;4993036;28;20099;-84
2022/09/05 13:26:02;;;;;;;3.65;2.50;;;31.30;1.00;;;;;;4869109;29;20057;-83
2022/09/05 13:29:28;;;;;;;3.92;2.42;;;31.40;1.00;;;;;;4909720;29;20050;-83
2022/09/05 13:32:29;;;;;;;4.93;2.38;;;31.10;1.00;;;;;;4936799;28;20065;-83
2022/09/05 13:35:48;;;;;;;4.32;2.20;;;31.00;1.00;;;;;;5019035;28;20124;-84
2022/09/05 13:42:57;;;;;;;3.33;2.10;;;30.20;1.00;;;;;;4904412;29;20244;-83
2022/09/05 13:46:09;;;;;;;5.82;2.30;;;31.90;1.00;;;;;;4986162;28;20061;-83
2022/09/05 13:48:57;;;;;;;3.28;2.17;;;32.10;1.00;;;;;;5019310;28;20056;-83
2022/09/05 13:51:29;;;;;;;4.65;2.42;;;32.60;1.00;;;;;;5011743;28;20046;-83
2022/09/05 13:54:32;;;;;;;3.33;2.17;;;33.00;1.00;;;;;;4972040;28;20313;-84
2022/09/05 13:57:16;;;;;;;2.10;1.90;;;33.00;1.00;;;;;;4977109;28;20054;-83
2022/09/05 14:00:13;;;;;;;3.20;2.15;;;33.40;1.00;;;;;;4980413;28;20038;-83
2022/09/05 14:03:01;;;;;;;2.53;2.00;;;32.90;1.00;;;;;;4986164;28;20477;-83
2022/09/05 14:05:26;;;;;;;5.40;2.17;;;33.00;1.00;;;;;;5014361;28;20060;-83
2022/09/05 14:08:45;;;;;;;3.17;2.35;;;33.30;1.00;;;;;;4988808;28;20054;-83
2022/09/05 14:11:35;;;;;;;6.60;2.15;;;33.50;1.00;;;;;;4958283;28;20552;-83
2022/09/05 14:14:24;;;;;;;2.03;1.77;;;33.40;1.00;;;;;;4974767;28;20050;-84
2022/09/05 14:17:05;;;;;;;2.53;1.80;;;33.60;1.00;;;;;;4977057;28;20046;-83
2022/09/05 14:22:52;;;;;;;2.13;1.92;;;34.40;1.00;;;;;;4990580;28;20116;-83
2022/09/05 14:25:33;;;;;;;3.28;2.00;;;34.30;1.00;;;;;;5014328;28;20091;-83
2022/09/05 14:28:01;;;;;;;6.10;2.10;;;34.60;1.00;;;;;;4993925;28;20039;-83
2022/09/05 14:31:00;;;;;;;4.70;2.00;;;34.90;1.00;;;;;;4982670;28;20367;-84